sensor_id;sensor_type;location;lat;lon;timestamp;pressure;altitude;pressure_sealevel;temperature;humidity
17260;BME280;8746;49.230;9.220;2023-02-11T00:01:31;102073.94;;;-3.58;100.00
17260;BME280;8746;49.230;9.220;2023-02-11T00:03:58;102073.59;;;-3.64;100.00
17260;BME280;8746;49.230;9.220;2023-02-11T00:06:25;102077.00;;;-3.65;100.00
17260;BME280;8746;49.230;9.220;2023-02-11T00:08:52;102080.38;;;-3.66;100.00
17260;BME280;8746;49.230;9.220;2023-02-11T00:11:19;102075.53;;;-3.60;100.00
17260;BME280;8746;49.230;9.220;2023-02-11T00:13:46;102072.44;;;-3.70;100.00
17260;BME280;8746;49.230;9.220;2023-02-11T00:16:17;102073.28;;;-3.71;100.00
17260;BME280;8746;49.230;9.220;2023-02-11T00:18:43;102071.50;;;-3.72;100.00
17260;BME280;8746;49.230;9.220;2023-02-11T00:21:12;102065.31;;;-3.75;100.00
17260;BME280;8746;49.230;9.220;2023-02-11T00:23:38;102078.94;;;-3.78;99.90
17260;BME280;8746;49.230;9.220;2023-02-11T00:26:16;102076.34;;;-3.78;100.00
17260;BME280;8746;49.230;9.220;2023-02-11T00:28:42;102076.66;;;-3.88;100.00
17260;BME280;8746;49.230;9.220;2023-02-11T00:31:08;102074.41;;;-3.82;100.00
17260;BME280;8746;49.230;9.220;2023-02-11T00:33:33;102070.13;;;-3.81;100.00
17260;BME280;8746;49.230;9.220;2023-02-11T00:36:06;102067.88;;;-3.92;100.00
17260;BME280;8746;49.230;9.220;2023-02-11T00:38:32;102066.09;;;-3.93;100.00
17260;BME280;8746;49.230;9.220;2023-02-11T00:40:57;102067.00;;;-3.92;100.00
17260;BME280;8746;49.230;9.220;2023-02-11T00:43:22;102059.19;;;-3.94;100.00
17260;BME280;8746;49.230;9.220;2023-02-11T00:45:48;102047.22;;;-3.92;100.00
17260;BME280;8746;49.230;9.220;2023-02-11T00:48:13;102046.91;;;-3.98;100.00
17260;BME280;8746;49.230;9.220;2023-02-11T00:50:38;102033.06;;;-4.00;100.00
17260;BME280;8746;49.230;9.220;2023-02-11T00:53:04;102045.00;;;-4.02;100.00
17260;BME280;8746;49.230;9.220;2023-02-11T00:55:29;102044.19;;;-4.01;100.00
17260;BME280;8746;49.230;9.220;2023-02-11T00:57:55;102044.25;;;-3.99;100.00
17260;BME280;8746;49.230;9.220;2023-02-11T01:00:20;102055.63;;;-3.96;100.00
17260;BME280;8746;49.230;9.220;2023-02-11T01:02:46;102052.50;;;-3.90;100.00
17260;BME280;8746;49.230;9.220;2023-02-11T01:05:11;102060.22;;;-3.90;100.00
17260;BME280;8746;49.230;9.220;2023-02-11T01:07:37;102067.31;;;-3.86;100.00
17260;BME280;8746;49.230;9.220;2023-02-11T01:10:02;102062.16;;;-3.86;100.00
17260;BME280;8746;49.230;9.220;2023-02-11T01:12:28;102060.22;;;-3.90;100.00
17260;BME280;8746;49.230;9.220;2023-02-11T01:14:53;102051.44;;;-3.77;100.00
17260;BME280;8746;49.230;9.220;2023-02-11T01:17:19;102046.81;;;-3.83;100.00
17260;BME280;8746;49.230;9.220;2023-02-11T01:19:44;102054.91;;;-3.77;100.00
17260;BME280;8746;49.230;9.220;2023-02-11T01:22:09;102045.84;;;-3.68;100.00
17260;BME280;8746;49.230;9.220;2023-02-11T01:24:35;102041.50;;;-3.70;100.00
17260;BME280;8746;49.230;9.220;2023-02-11T01:27:00;102044.75;;;-3.57;100.00
17260;BME280;8746;49.230;9.220;2023-02-11T01:29:26;102051.44;;;-3.61;100.00
17260;BME280;8746;49.230;9.220;2023-02-11T01:31:51;102047.41;;;-3.56;100.00
17260;BME280;8746;49.230;9.220;2023-02-11T01:34:16;102050.38;;;-3.64;100.00
17260;BME280;8746;49.230;9.220;2023-02-11T01:36:42;102044.88;;;-3.54;100.00
17260;BME280;8746;49.230;9.220;2023-02-11T01:39:07;102039.41;;;-3.60;100.00
17260;BME280;8746;49.230;9.220;2023-02-11T01:41:33;102045.84;;;-3.52;100.00
17260;BME280;8746;49.230;9.220;2023-02-11T01:46:50;102036.81;;;-3.44;100.00
17260;BME280;8746;49.230;9.220;2023-02-11T01:49:37;102042.72;;;-3.28;100.00
17260;BME280;8746;49.230;9.220;2023-02-11T01:52:11;102032.81;;;-3.20;100.00
17260;BME280;8746;49.230;9.220;2023-02-11T01:54:42;102022.84;;;-3.13;100.00
17260;BME280;8746;49.230;9.220;2023-02-11T01:57:29;102006.63;;;-3.10;100.00
17260;BME280;8746;49.230;9.220;2023-02-11T02:00:00;101996.75;;;-3.01;100.00
17260;BME280;8746;49.230;9.220;2023-02-11T02:02:33;102005.28;;;-2.84;100.00
17260;BME280;8746;49.230;9.220;2023-02-11T02:05:09;102007.28;;;-2.78;100.00
17260;BME280;8746;49.230;9.220;2023-02-11T02:07:51;102001.16;;;-2.62;100.00
17260;BME280;8746;49.230;9.220;2023-02-11T02:10:20;101991.56;;;-2.65;100.00
17260;BME280;8746;49.230;9.220;2023-02-11T02:12:47;101994.34;;;-2.60;100.00
17260;BME280;8746;49.230;9.220;2023-02-11T02:17:57;101993.41;;;-2.62;100.00
17260;BME280;8746;49.230;9.220;2023-02-11T02:26:34;101982.41;;;-2.58;100.00
17260;BME280;8746;49.230;9.220;2023-02-11T02:34:40;101958.22;;;-2.40;100.00
17260;BME280;8746;49.230;9.220;2023-02-11T02:37:14;101957.72;;;-2.51;100.00
17260;BME280;8746;49.230;9.220;2023-02-11T02:39:43;101948.41;;;-2.48;100.00
17260;BME280;8746;49.230;9.220;2023-02-11T02:42:11;101950.78;;;-2.52;100.00
17260;BME280;8746;49.230;9.220;2023-02-11T02:44:37;101954.91;;;-2.56;100.00
17260;BME280;8746;49.230;9.220;2023-02-11T02:47:02;101944.72;;;-2.53;100.00
17260;BME280;8746;49.230;9.220;2023-02-11T02:49:27;101942.97;;;-2.54;100.00
17260;BME280;8746;49.230;9.220;2023-02-11T03:08:27;101939.16;;;-2.80;100.00
17260;BME280;8746;49.230;9.220;2023-02-11T03:10:55;101950.91;;;-2.69;100.00
17260;BME280;8746;49.230;9.220;2023-02-11T03:13:26;101947.84;;;-2.60;100.00
17260;BME280;8746;49.230;9.220;2023-02-11T03:15:55;101953.75;;;-2.25;100.00
17260;BME280;8746;49.230;9.220;2023-02-11T03:18:25;101956.09;;;-2.30;100.00
17260;BME280;8746;49.230;9.220;2023-02-11T03:20:53;101947.34;;;-2.33;100.00
17260;BME280;8746;49.230;9.220;2023-02-11T03:23:31;101948.94;;;-2.35;100.00
17260;BME280;8746;49.230;9.220;2023-02-11T03:26:24;101945.72;;;-2.31;100.00
17260;BME280;8746;49.230;9.220;2023-02-11T03:29:01;101945.97;;;-2.25;100.00
17260;BME280;8746;49.230;9.220;2023-02-11T03:37:02;101937.53;;;-2.21;100.00
17260;BME280;8746;49.230;9.220;2023-02-11T03:39:37;101936.56;;;-2.23;100.00
17260;BME280;8746;49.230;9.220;2023-02-11T03:42:05;101934.53;;;-2.30;100.00
17260;BME280;8746;49.230;9.220;2023-02-11T03:44:36;101937.25;;;-2.27;100.00
17260;BME280;8746;49.230;9.220;2023-02-11T03:47:06;101925.03;;;-2.31;100.00
17260;BME280;8746;49.230;9.220;2023-02-11T03:49:34;101928.53;;;-2.29;100.00
17260;BME280;8746;49.230;9.220;2023-02-11T03:52:02;101918.97;;;-2.32;100.00
17260;BME280;8746;49.230;9.220;2023-02-11T03:54:30;101921.25;;;-2.18;100.00
17260;BME280;8746;49.230;9.220;2023-02-11T03:56:57;101924.31;;;-2.07;100.00
17260;BME280;8746;49.230;9.220;2023-02-11T03:59:24;101927.03;;;-2.24;100.00
17260;BME280;8746;49.230;9.220;2023-02-11T04:01:50;101933.31;;;-2.38;100.00
17260;BME280;8746;49.230;9.220;2023-02-11T04:04:16;101933.88;;;-2.26;100.00
17260;BME280;8746;49.230;9.220;2023-02-11T04:06:41;101935.69;;;-2.23;100.00
17260;BME280;8746;49.230;9.220;2023-02-11T04:09:07;101940.13;;;-2.21;100.00
17260;BME280;8746;49.230;9.220;2023-02-11T04:11:33;101932.63;;;-2.15;100.00
17260;BME280;8746;49.230;9.220;2023-02-11T04:13:58;101934.34;;;-2.15;100.00
17260;BME280;8746;49.230;9.220;2023-02-11T04:16:24;101931.06;;;-2.11;100.00
17260;BME280;8746;49.230;9.220;2023-02-11T04:18:49;101935.47;;;-2.08;100.00
17260;BME280;8746;49.230;9.220;2023-02-11T04:21:15;101935.22;;;-2.15;100.00
17260;BME280;8746;49.230;9.220;2023-02-11T04:23:40;101941.47;;;-2.10;100.00
17260;BME280;8746;49.230;9.220;2023-02-11T04:26:05;101942.53;;;-2.04;100.00
17260;BME280;8746;49.230;9.220;2023-02-11T04:28:31;101932.34;;;-2.01;100.00
17260;BME280;8746;49.230;9.220;2023-02-11T04:30:56;101941.94;;;-1.99;100.00
17260;BME280;8746;49.230;9.220;2023-02-11T04:33:23;101936.16;;;-1.93;100.00
17260;BME280;8746;49.230;9.220;2023-02-11T04:35:48;101928.25;;;-1.96;100.00
17260;BME280;8746;49.230;9.220;2023-02-11T04:38:14;101929.25;;;-1.92;100.00
17260;BME280;8746;49.230;9.220;2023-02-11T04:40:40;101925.16;;;-1.87;100.00
17260;BME280;8746;49.230;9.220;2023-02-11T04:43:05;101921.09;;;-1.82;100.00
17260;BME280;8746;49.230;9.220;2023-02-11T04:45:31;101908.97;;;-1.83;100.00
17260;BME280;8746;49.230;9.220;2023-02-11T04:47:56;101905.75;;;-1.78;100.00
17260;BME280;8746;49.230;9.220;2023-02-11T04:50:22;101895.28;;;-1.81;100.00
17260;BME280;8746;49.230;9.220;2023-02-11T04:52:47;101883.09;;;-1.83;100.00
17260;BME280;8746;49.230;9.220;2023-02-11T04:55:13;101873.69;;;-1.81;100.00
17260;BME280;8746;49.230;9.220;2023-02-11T04:57:38;101874.00;;;-1.73;100.00
17260;BME280;8746;49.230;9.220;2023-02-11T05:00:04;101878.94;;;-1.80;100.00
17260;BME280;8746;49.230;9.220;2023-02-11T05:02:30;101876.41;;;-1.78;100.00
17260;BME280;8746;49.230;9.220;2023-02-11T05:04:55;101878.78;;;-1.83;100.00
17260;BME280;8746;49.230;9.220;2023-02-11T05:07:21;101882.44;;;-1.78;100.00
17260;BME280;8746;49.230;9.220;2023-02-11T05:09:46;101880.97;;;-1.72;100.00
17260;BME280;8746;49.230;9.220;2023-02-11T05:12:11;101880.19;;;-1.70;100.00
17260;BME280;8746;49.230;9.220;2023-02-11T05:14:37;101891.38;;;-1.71;100.00
17260;BME280;8746;49.230;9.220;2023-02-11T05:17:02;101888.16;;;-1.65;100.00
17260;BME280;8746;49.230;9.220;2023-02-11T05:19:28;101888.84;;;-1.69;100.00
17260;BME280;8746;49.230;9.220;2023-02-11T05:21:53;101898.22;;;-1.71;100.00
17260;BME280;8746;49.230;9.220;2023-02-11T05:24:18;101911.31;;;-1.68;100.00
17260;BME280;8746;49.230;9.220;2023-02-11T05:26:44;101908.97;;;-1.62;100.00
17260;BME280;8746;49.230;9.220;2023-02-11T05:29:09;101918.81;;;-1.74;100.00
17260;BME280;8746;49.230;9.220;2023-02-11T05:31:34;101908.31;;;-1.78;100.00
17260;BME280;8746;49.230;9.220;2023-02-11T05:34:00;101905.19;;;-1.70;100.00
17260;BME280;8746;49.230;9.220;2023-02-11T05:36:28;101923.38;;;-1.69;100.00
17260;BME280;8746;49.230;9.220;2023-02-11T05:38:53;101919.06;;;-1.68;100.00
17260;BME280;8746;49.230;9.220;2023-02-11T05:41:19;101912.75;;;-1.75;100.00
17260;BME280;8746;49.230;9.220;2023-02-11T05:43:47;101907.59;;;-1.54;100.00
17260;BME280;8746;49.230;9.220;2023-02-11T05:46:14;101907.09;;;-1.66;100.00
17260;BME280;8746;49.230;9.220;2023-02-11T05:48:39;101892.19;;;-1.72;100.00
17260;BME280;8746;49.230;9.220;2023-02-11T05:51:04;101885.38;;;-1.70;100.00
17260;BME280;8746;49.230;9.220;2023-02-11T05:53:30;101878.88;;;-1.60;100.00
17260;BME280;8746;49.230;9.220;2023-02-11T05:55:55;101881.47;;;-1.60;100.00
17260;BME280;8746;49.230;9.220;2023-02-11T05:58:21;101890.66;;;-1.67;100.00
17260;BME280;8746;49.230;9.220;2023-02-11T06:00:47;101882.84;;;-1.68;100.00
17260;BME280;8746;49.230;9.220;2023-02-11T06:03:12;101885.38;;;-1.70;100.00
17260;BME280;8746;49.230;9.220;2023-02-11T06:05:37;101874.94;;;-1.71;100.00
17260;BME280;8746;49.230;9.220;2023-02-11T06:08:03;101886.13;;;-1.72;100.00
17260;BME280;8746;49.230;9.220;2023-02-11T06:10:29;101877.41;;;-1.74;100.00
17260;BME280;8746;49.230;9.220;2023-02-11T06:12:54;101875.91;;;-1.69;100.00
17260;BME280;8746;49.230;9.220;2023-02-11T06:15:19;101872.56;;;-1.67;100.00
17260;BME280;8746;49.230;9.220;2023-02-11T06:17:45;101879.44;;;-1.67;100.00
17260;BME280;8746;49.230;9.220;2023-02-11T06:20:11;101887.81;;;-1.73;100.00
17260;BME280;8746;49.230;9.220;2023-02-11T06:22:36;101885.44;;;-1.68;100.00
17260;BME280;8746;49.230;9.220;2023-02-11T06:25:02;101888.84;;;-1.69;100.00
17260;BME280;8746;49.230;9.220;2023-02-11T06:27:28;101887.06;;;-1.70;100.00
17260;BME280;8746;49.230;9.220;2023-02-11T06:29:54;101884.72;;;-1.64;100.00
17260;BME280;8746;49.230;9.220;2023-02-11T06:32:19;101881.31;;;-1.63;100.00
17260;BME280;8746;49.230;9.220;2023-02-11T06:34:45;101879.81;;;-1.58;100.00
17260;BME280;8746;49.230;9.220;2023-02-11T06:37:11;101879.50;;;-1.66;100.00
17260;BME280;8746;49.230;9.220;2023-02-11T06:39:36;101885.75;;;-1.61;100.00
17260;BME280;8746;49.230;9.220;2023-02-11T06:42:02;101888.97;;;-1.66;100.00
17260;BME280;8746;49.230;9.220;2023-02-11T06:44:27;101888.28;;;-1.62;100.00
17260;BME280;8746;49.230;9.220;2023-02-11T06:46:52;101877.66;;;-1.47;100.00
17260;BME280;8746;49.230;9.220;2023-02-11T06:49:18;101871.28;;;-1.34;100.00
17260;BME280;8746;49.230;9.220;2023-02-11T06:51:43;101871.75;;;-1.22;100.00
17260;BME280;8746;49.230;9.220;2023-02-11T06:54:10;101872.00;;;-1.16;98.95
17260;BME280;8746;49.230;9.220;2023-02-11T06:56:39;101873.34;;;-1.03;98.34
17260;BME280;8746;49.230;9.220;2023-02-11T06:59:05;101880.59;;;-0.94;98.22
17260;BME280;8746;49.230;9.220;2023-02-11T07:01:30;101888.41;;;-0.92;98.15
17260;BME280;8746;49.230;9.220;2023-02-11T07:03:55;101900.75;;;-0.87;97.58
17260;BME280;8746;49.230;9.220;2023-02-11T07:06:23;101899.06;;;-0.85;97.97
17260;BME280;8746;49.230;9.220;2023-02-11T07:08:50;101893.34;;;-0.76;97.51
17260;BME280;8746;49.230;9.220;2023-02-11T07:11:21;101896.78;;;-0.77;97.48
17260;BME280;8746;49.230;9.220;2023-02-11T07:13:49;101893.25;;;-0.79;97.21
17260;BME280;8746;49.230;9.220;2023-02-11T07:16:16;101894.06;;;-0.80;97.58
17260;BME280;8746;49.230;9.220;2023-02-11T07:18:41;101892.66;;;-0.72;97.39
17260;BME280;8746;49.230;9.220;2023-02-11T07:21:11;101884.59;;;-0.55;96.21
17260;BME280;8746;49.230;9.220;2023-02-11T07:23:37;101882.13;;;-0.52;95.65
17260;BME280;8746;49.230;9.220;2023-02-11T07:26:08;101878.38;;;-0.36;95.04
17260;BME280;8746;49.230;9.220;2023-02-11T07:28:35;101881.81;;;-0.37;94.86
17260;BME280;8746;49.230;9.220;2023-02-11T07:31:30;101871.25;;;-0.42;94.67
17260;BME280;8746;49.230;9.220;2023-02-11T07:33:58;101872.25;;;-0.38;94.72
17260;BME280;8746;49.230;9.220;2023-02-11T07:36:25;101870.81;;;-0.30;94.53
17260;BME280;8746;49.230;9.220;2023-02-11T07:38:50;101872.81;;;-0.23;94.40
17260;BME280;8746;49.230;9.220;2023-02-11T07:41:18;101873.69;;;-0.22;93.74
17260;BME280;8746;49.230;9.220;2023-02-11T07:43:44;101877.25;;;-0.19;93.82
17260;BME280;8746;49.230;9.220;2023-02-11T07:46:12;101872.34;;;-0.11;93.59
17260;BME280;8746;49.230;9.220;2023-02-11T07:48:38;101887.16;;;-0.08;94.02
17260;BME280;8746;49.230;9.220;2023-02-11T07:51:12;101881.25;;;-0.03;93.82
17260;BME280;8746;49.230;9.220;2023-02-11T07:53:38;101886.53;;;-0.01;92.74
17260;BME280;8746;49.230;9.220;2023-02-11T07:56:04;101878.97;;;0.05;92.62
17260;BME280;8746;49.230;9.220;2023-02-11T07:58:31;101887.34;;;0.24;92.24
17260;BME280;8746;49.230;9.220;2023-02-11T08:01:04;101874.59;;;0.30;92.07
17260;BME280;8746;49.230;9.220;2023-02-11T08:03:30;101875.97;;;0.46;91.31
17260;BME280;8746;49.230;9.220;2023-02-11T08:05:56;101871.66;;;0.74;90.67
17260;BME280;8746;49.230;9.220;2023-02-11T08:08:21;101872.72;;;0.53;90.31
17260;BME280;8746;49.230;9.220;2023-02-11T08:10:47;101875.28;;;0.52;89.47
17260;BME280;8746;49.230;9.220;2023-02-11T08:13:13;101867.88;;;0.64;89.26
17260;BME280;8746;49.230;9.220;2023-02-11T08:15:38;101869.13;;;0.77;88.36
17260;BME280;8746;49.230;9.220;2023-02-11T08:18:03;101869.69;;;0.67;88.55
17260;BME280;8746;49.230;9.220;2023-02-11T08:20:29;101878.28;;;0.64;88.83
17260;BME280;8746;49.230;9.220;2023-02-11T08:22:54;101874.53;;;0.56;89.36
17260;BME280;8746;49.230;9.220;2023-02-11T08:25:20;101873.78;;;0.60;89.11
17260;BME280;8746;49.230;9.220;2023-02-11T08:27:45;101861.94;;;0.68;89.30
17260;BME280;8746;49.230;9.220;2023-02-11T08:30:11;101867.88;;;0.64;88.80
17260;BME280;8746;49.230;9.220;2023-02-11T08:32:36;101862.44;;;0.56;89.08
17260;BME280;8746;49.230;9.220;2023-02-11T08:35:04;101858.88;;;0.53;89.07
17260;BME280;8746;49.230;9.220;2023-02-11T08:37:29;101858.88;;;0.53;89.59
17260;BME280;8746;49.230;9.220;2023-02-11T08:39:54;101862.78;;;0.67;89.22
17260;BME280;8746;49.230;9.220;2023-02-11T08:42:20;101858.47;;;0.68;87.83
17260;BME280;8746;49.230;9.220;2023-02-11T08:44:45;101873.34;;;0.73;87.92
17260;BME280;8746;49.230;9.220;2023-02-11T08:47:10;101878.84;;;0.83;87.50
17260;BME280;8746;49.230;9.220;2023-02-11T08:49:36;101889.75;;;1.00;87.26
17260;BME280;8746;49.230;9.220;2023-02-11T08:52:01;101886.47;;;1.05;87.62
17260;BME280;8746;49.230;9.220;2023-02-11T08:54:29;101895.00;;;1.30;86.21
17260;BME280;8746;49.230;9.220;2023-02-11T08:56:55;101888.56;;;1.48;86.13
17260;BME280;8746;49.230;9.220;2023-02-11T08:59:20;101891.44;;;1.57;85.13
17260;BME280;8746;49.230;9.220;2023-02-11T09:01:46;101890.84;;;1.67;84.17
17260;BME280;8746;49.230;9.220;2023-02-11T09:04:12;101896.22;;;1.73;84.24
17260;BME280;8746;49.230;9.220;2023-02-11T09:06:38;101892.19;;;1.85;84.60
17260;BME280;8746;49.230;9.220;2023-02-11T09:09:04;101892.44;;;1.94;83.85
17260;BME280;8746;49.230;9.220;2023-02-11T09:11:32;101881.59;;;2.11;83.60
17260;BME280;8746;49.230;9.220;2023-02-11T09:13:59;101877.59;;;2.25;82.96
17260;BME280;8746;49.230;9.220;2023-02-11T09:16:28;101879.50;;;2.32;82.86
17260;BME280;8746;49.230;9.220;2023-02-11T09:18:55;101867.16;;;2.60;82.08
17260;BME280;8746;49.230;9.220;2023-02-11T09:21:21;101876.09;;;2.71;81.10
17260;BME280;8746;49.230;9.220;2023-02-11T09:23:46;101877.41;;;2.91;80.67
17260;BME280;8746;49.230;9.220;2023-02-11T09:26:15;101882.63;;;2.91;80.09
17260;BME280;8746;49.230;9.220;2023-02-11T09:28:41;101880.00;;;2.89;80.13
17260;BME280;8746;49.230;9.220;2023-02-11T09:31:10;101879.78;;;3.19;78.98
17260;BME280;8746;49.230;9.220;2023-02-11T09:33:38;101881.53;;;2.81;80.03
17260;BME280;8746;49.230;9.220;2023-02-11T09:36:06;101883.00;;;3.08;79.56
17260;BME280;8746;49.230;9.220;2023-02-11T09:38:32;101887.88;;;2.92;80.15
17260;BME280;8746;49.230;9.220;2023-02-11T09:40:58;101881.63;;;2.84;80.54
17260;BME280;8746;49.230;9.220;2023-02-11T09:43:34;101895.00;;;2.99;80.34
17260;BME280;8746;49.230;9.220;2023-02-11T09:46:00;101896.25;;;3.17;79.43
17260;BME280;8746;49.230;9.220;2023-02-11T09:48:28;101889.06;;;3.46;78.98
17260;BME280;8746;49.230;9.220;2023-02-11T09:50:59;101890.00;;;3.51;77.97
17260;BME280;8746;49.230;9.220;2023-02-11T09:53:29;101890.78;;;3.47;77.55
17260;BME280;8746;49.230;9.220;2023-02-11T09:55:58;101896.28;;;3.61;77.14
17260;BME280;8746;49.230;9.220;2023-02-11T09:58:28;101879.44;;;3.91;75.74
17260;BME280;8746;49.230;9.220;2023-02-11T10:01:02;101883.81;;;3.92;74.86
17260;BME280;8746;49.230;9.220;2023-02-11T10:03:52;101880.47;;;3.99;74.66
17260;BME280;8746;49.230;9.220;2023-02-11T10:12:37;101872.91;;;5.32;70.34
17260;BME280;8746;49.230;9.220;2023-02-11T10:20:35;101871.09;;;6.03;68.17
17260;BME280;8746;49.230;9.220;2023-02-11T10:23:09;101869.22;;;5.96;67.17
17260;BME280;8746;49.230;9.220;2023-02-11T10:25:42;101857.84;;;5.90;68.12
17260;BME280;8746;49.230;9.220;2023-02-11T10:28:14;101854.72;;;6.25;67.32
17260;BME280;8746;49.230;9.220;2023-02-11T10:30:44;101845.59;;;7.02;65.05
17260;BME280;8746;49.230;9.220;2023-02-11T10:33:23;101842.88;;;6.85;64.85
17260;BME280;8746;49.230;9.220;2023-02-11T10:35:49;101846.38;;;6.87;64.99
17260;BME280;8746;49.230;9.220;2023-02-11T10:38:15;101852.50;;;6.87;65.33
17260;BME280;8746;49.230;9.220;2023-02-11T10:40:40;101845.88;;;7.79;63.50
17260;BME280;8746;49.230;9.220;2023-02-11T10:43:13;101842.38;;;8.42;61.57
17260;BME280;8746;49.230;9.220;2023-02-11T10:45:42;101852.81;;;7.52;62.01
17260;BME280;8746;49.230;9.220;2023-02-11T10:48:47;101860.72;;;7.68;62.38
17260;BME280;8746;49.230;9.220;2023-02-11T10:51:28;101859.88;;;7.81;61.88
17260;BME280;8746;49.230;9.220;2023-02-11T10:56:40;101862.06;;;6.78;65.85
17260;BME280;8746;49.230;9.220;2023-02-11T10:59:27;101846.38;;;6.85;66.83
17260;BME280;8746;49.230;9.220;2023-02-11T11:01:58;101859.75;;;7.32;65.43
17260;BME280;8746;49.230;9.220;2023-02-11T11:07:21;101850.97;;;7.30;65.34
17260;BME280;8746;49.230;9.220;2023-02-11T11:10:07;101844.97;;;7.79;64.08
17260;BME280;8746;49.230;9.220;2023-02-11T11:12:49;101834.47;;;7.73;64.11
17260;BME280;8746;49.230;9.220;2023-02-11T11:15:25;101837.06;;;7.59;64.64
17260;BME280;8746;49.230;9.220;2023-02-11T11:20:34;101834.34;;;7.32;65.00
17260;BME280;8746;49.230;9.220;2023-02-11T11:23:16;101836.16;;;7.43;64.60
17260;BME280;8746;49.230;9.220;2023-02-11T11:25:44;101837.59;;;6.77;66.13
17260;BME280;8746;49.230;9.220;2023-02-11T11:31:03;101845.53;;;6.91;66.70
17260;BME280;8746;49.230;9.220;2023-02-11T11:33:32;101844.72;;;7.01;66.67
17260;BME280;8746;49.230;9.220;2023-02-11T11:36:01;101845.72;;;7.37;65.53
17260;BME280;8746;49.230;9.220;2023-02-11T11:38:29;101840.50;;;7.42;65.39
17260;BME280;8746;49.230;9.220;2023-02-11T11:41:15;101842.19;;;7.28;65.32
17260;BME280;8746;49.230;9.220;2023-02-11T11:43:56;101849.34;;;7.60;64.54
17260;BME280;8746;49.230;9.220;2023-02-11T11:46:38;101856.25;;;7.36;65.40
17260;BME280;8746;49.230;9.220;2023-02-11T11:49:22;101848.16;;;6.88;66.14
17260;BME280;8746;49.230;9.220;2023-02-11T11:54:27;101849.91;;;6.90;67.44
17260;BME280;8746;49.230;9.220;2023-02-11T11:56:59;101853.28;;;6.69;68.29
17260;BME280;8746;49.230;9.220;2023-02-11T11:59:27;101849.88;;;6.83;68.21
17260;BME280;8746;49.230;9.220;2023-02-11T12:05:28;101845.59;;;7.02;67.61
17260;BME280;8746;49.230;9.220;2023-02-11T12:08:16;101848.25;;;7.14;67.09
17260;BME280;8746;49.230;9.220;2023-02-11T12:13:55;101837.50;;;6.66;68.20
17260;BME280;8746;49.230;9.220;2023-02-11T12:16:43;101830.38;;;6.47;68.73
17260;BME280;8746;49.230;9.220;2023-02-11T12:22:10;101823.50;;;6.64;67.89
17260;BME280;8746;49.230;9.220;2023-02-11T12:32:42;101832.31;;;6.72;68.38
17260;BME280;8746;49.230;9.220;2023-02-11T12:35:37;101824.41;;;6.63;68.18
17260;BME280;8746;49.230;9.220;2023-02-11T12:40:42;101800.81;;;6.74;67.58
17260;BME280;8746;49.230;9.220;2023-02-11T12:43:22;101806.19;;;6.93;68.05
17260;BME280;8746;49.230;9.220;2023-02-11T12:46:07;101809.63;;;6.81;67.39
17260;BME280;8746;49.230;9.220;2023-02-11T12:59:41;101797.53;;;7.14;66.83
17260;BME280;8746;49.230;9.220;2023-02-11T13:05:26;101805.31;;;6.97;67.02
17260;BME280;8746;49.230;9.220;2023-02-11T13:07:57;101778.97;;;6.72;67.82
17260;BME280;8746;49.230;9.220;2023-02-11T13:10:37;101779.13;;;7.01;68.03
17260;BME280;8746;49.230;9.220;2023-02-11T13:13:20;101784.28;;;6.84;67.90
17260;BME280;8746;49.230;9.220;2023-02-11T13:15:57;101780.78;;;6.79;67.88
17260;BME280;8746;49.230;9.220;2023-02-11T13:31:22;101769.22;;;6.51;69.40
17260;BME280;8746;49.230;9.220;2023-02-11T13:33:51;101758.72;;;6.49;69.04
17260;BME280;8746;49.230;9.220;2023-02-11T13:36:21;101764.91;;;6.57;69.15
17260;BME280;8746;49.230;9.220;2023-02-11T13:38:52;101766.59;;;6.49;69.35
17260;BME280;8746;49.230;9.220;2023-02-11T13:41:33;101770.19;;;6.62;69.45
17260;BME280;8746;49.230;9.220;2023-02-11T13:46:56;101775.53;;;6.81;68.74
17260;BME280;8746;49.230;9.220;2023-02-11T13:49:26;101790.44;;;6.86;68.59
17260;BME280;8746;49.230;9.220;2023-02-11T13:51:54;101784.31;;;6.90;68.79
17260;BME280;8746;49.230;9.220;2023-02-11T13:54:36;101792.22;;;6.94;68.28
17260;BME280;8746;49.230;9.220;2023-02-11T13:59:55;101789.72;;;7.34;67.29
17260;BME280;8746;49.230;9.220;2023-02-11T14:02:38;101786.25;;;7.58;66.86
17260;BME280;8746;49.230;9.220;2023-02-11T14:05:27;101788.91;;;7.64;66.02
17260;BME280;8746;49.230;9.220;2023-02-11T14:16:20;101781.94;;;8.07;65.50
17260;BME280;8746;49.230;9.220;2023-02-11T14:23:39;101769.66;;;8.26;65.04
17260;BME280;8746;49.230;9.220;2023-02-11T14:26:27;101763.53;;;8.17;65.47
17260;BME280;8746;49.230;9.220;2023-02-11T14:31:42;101778.44;;;7.78;66.18
17260;BME280;8746;49.230;9.220;2023-02-11T14:39:48;101780.09;;;7.44;67.94
17260;BME280;8746;49.230;9.220;2023-02-11T14:42:19;101780.97;;;7.32;68.47
17260;BME280;8746;49.230;9.220;2023-02-11T14:44:51;101783.53;;;7.09;68.87
17260;BME280;8746;49.230;9.220;2023-02-11T14:47:35;101787.03;;;7.14;68.70
17260;BME280;8746;49.230;9.220;2023-02-11T14:50:05;101792.28;;;7.14;69.56
17260;BME280;8746;49.230;9.220;2023-02-11T14:52:33;101795.69;;;6.97;69.41
17260;BME280;8746;49.230;9.220;2023-02-11T14:57:33;101792.25;;;7.01;69.56
17260;BME280;8746;49.230;9.220;2023-02-11T15:00:04;101802.72;;;7.04;69.55
17260;BME280;8746;49.230;9.220;2023-02-11T15:02:35;101801.03;;;7.10;69.34
17260;BME280;8746;49.230;9.220;2023-02-11T15:05:14;101807.13;;;7.04;69.76
17260;BME280;8746;49.230;9.220;2023-02-11T15:07:49;101807.94;;;6.92;70.27
17260;BME280;8746;49.230;9.220;2023-02-11T15:12:57;101817.56;;;6.93;70.25
17260;BME280;8746;49.230;9.220;2023-02-11T15:15:23;101811.38;;;6.82;70.63
17260;BME280;8746;49.230;9.220;2023-02-11T15:17:49;101820.13;;;6.82;70.94
17260;BME280;8746;49.230;9.220;2023-02-11T15:20:19;101818.34;;;6.81;71.20
17260;BME280;8746;49.230;9.220;2023-02-11T15:22:46;101823.56;;;6.73;71.85
17260;BME280;8746;49.230;9.220;2023-02-11T15:25:16;101824.47;;;6.77;71.59
17260;BME280;8746;49.230;9.220;2023-02-11T15:32:53;101824.34;;;6.57;72.99
17260;BME280;8746;49.230;9.220;2023-02-11T15:35:30;101817.34;;;6.59;73.28
17260;BME280;8746;49.230;9.220;2023-02-11T15:37:57;101826.06;;;6.52;73.66
17260;BME280;8746;49.230;9.220;2023-02-11T15:40:26;101828.63;;;6.46;74.31